Decatur, IL (62521)

6:43 PM CST on December 07, 2016 (GMT -0600)
Sandhill Dr. | | Change Station

Elev 676 ft 39.82 °N, 88.92 °W | Updated 11 seconds ago

Partly Cloudy
Partly Cloudy
31.3 °F
Feels Like 25 °F
N
7.1
Wind Variable Wind from WNW
Gusts 7.6 mph

Today
High -- | Low -- °F
--% Chance of Precip.
Yesterday
High -- | Low -- °F
Precip. -- in
Pressure 30.24 in
Visibility 10.0 miles
Clouds Few 12000 ft
Windchill 25 °F
Dew Point 27 °F
Humidity 84%
Rainfall 0.00 in
Snow Depth Not available.
7:03 AM 4:30 PM
First Quarter, 57% visible
METAR KDEC 072354Z 27008KT 10SM FEW120 M01/M07 A3021 RMK AO2 SLP239 T10111072 10011 21011 52007
Pressure 30.24 in
Visibility 10.0 miles
Clouds Few 12000 ft
Windchill 25 °F
Dew Point 27 °F
Humidity 84%
Rainfall 0.00 in
Snow Depth Not available.
7:03 AM 4:30 PM
First Quarter, 57% visible
METAR KDEC 072354Z 27008KT 10SM FEW120 M01/M07 A3021 RMK AO2 SLP239 T10111072 10011 21011 52007

10-Day Weather Forecast

Almanac

Astronomy

Dec. 07, 2016 Rise Set
Actual Time
Civil Twilight
Nautical Twilight
Astronomical Twilight
Moon
Length of Visible Light
Length of Day
Tomorrow will be .
, % of the Moon is Illuminated

Today's Extremes

State Highs State Lows

Community

WunderPhotos

Upload Photos

1,956,220 photos uploaded!

WunderBlog® & News

Nearby

Air Quality

  Air Quality AQ Index Pollutant
Not available.

Snow Depth

Station Depth Elevation

Earthquake Activity

City Distance Mag. Time & Date
Minimum magnitude displayed is 2.5.

Coastal Water Temperatures

Place Temperature

Stations

Nearby Weather Stations

Station Location Temp. Windchill Dew Point Humidity Wind Precip. Elev Updated Type
                   

Watches & Warnings

There are currently no watches in effect.